Hawaii METAR Reports

 

PHOG - Kahului, Hawaii, USA
Distance from station: WNW 8mi, 13km
Updated: Fri, 23-Aug-2019 9:54am HST
Smoke, Partly cloudy
Smoke, Partly cloudy
 Wind from NNE
Wind: NNE 22 mph , 35 km/h, Gust: 28 mph , 44 km/h
Temperature: 86°F , 30°C
Heat Index: 93°F , 34°C
Dew Point: 73°F , 23°C
Humidity: 66%
Barometer: 29.95 inHg , 1014.2 hPa
Summary: Smoke
Clouds: Partly Cloudy
Visibility: 10 miles , 16 km
Cloud details: Few Clouds 3000 ft
Partly Cloudy 7000 ft
2019/08/23 19:54 PHOG 231954Z 03019G24KT 10SM FU FEW030 SCT070 30/23 A2995 RMK AO2 SLP145 T03000233
PHJH - Lahaina/West Mau, Hawaii, USA
Distance from station: WNW 24mi, 39km
Updated: Fri, 23-Aug-2019 9:45am HST
Partly Cloudy
Partly Cloudy
 Wind from NNE
Wind: NNE 17 mph , 28 km/h
Temperature: 86°F , 30°C
Heat Index: 93°F , 34°C
Dew Point: 73°F , 23°C
Humidity: 66%
Barometer: 29.95 inHg , 1014.2 hPa
Clouds: Partly Cloudy
Visibility: 15 miles , 24 km
Cloud details: Few Clouds 3000 ft
Partly Cloudy 4500 ft
2019/08/23 19:45 PHJH 231945Z 03015KT 15SM FEW030 SCT045 30/23 A2995
 
PHNY - Lanai City Airpo, Hawaii, USA
Distance from station: W 40mi, 65km
Updated: Fri, 23-Aug-2019 9:56am HST
Overcast
Overcast
 Wind from WSW
Wind: WSW 8 mph , 13 km/h
Temperature: 81°F , 27°C
Heat Index: 85°F , 29°C
Dew Point: 70°F , 21°C
Humidity: 70%
Barometer: 30.02 inHg , 1016.6 hPa
Clouds: Overcast
Visibility: 10 miles , 16 km
Cloud details: Overcast 3000 ft
2019/08/23 19:56 PHNY 231956Z AUTO 24007KT 10SM OVC030 27/21 A3002 RMK AO2 SLP142 T02670211
PHMK - Molokai, Hawaii, USA
Distance from station: WNW 55mi, 88km
Updated: Fri, 23-Aug-2019 9:54am HST
Clear
Clear
 Wind from NE
Wind: NE 14 mph , 22 km/h, Gust: 24 mph , 39 km/h
Temperature: 84°F , 29°C
Heat Index: 89°F , 32°C
Dew Point: 72°F , 22°C
Humidity: 66%
Barometer: 29.96 inHg , 1014.6 hPa
Clouds: Clear
Visibility: 10 miles , 16 km
2019/08/23 19:54 PHMK 231954Z 04012G21KT 10SM CLR 29/22 A2996 RMK AO2 SLP145 T02940217
 
PHKO - Kailua/Kona, Hawaii, USA
Distance from station: SSE 79mi, 128km
Updated: Fri, 23-Aug-2019 9:53am HST
Clear
Clear
 Wind from SSW
Wind: SSW 9 mph , 15 km/h
Temperature: 84°F , 29°C
Heat Index: 89°F , 32°C
Dew Point: 72°F , 22°C
Humidity: 66%
Barometer: 29.93 inHg , 1013.5 hPa
Clouds: Clear
Visibility: 10 miles , 16 km
2019/08/23 19:53 PHKO 231953Z 21008KT 10SM CLR 29/22 A2993 RMK AO2 SLP134 T02940222
PHSF - Bradshaw Aaf/Haw, Hawaii, USA
Distance from station: SE 90mi, 145km
Updated: Fri, 23-Aug-2019 9:56am HST
Clear
Clear
 Wind from S
Wind: S 18 mph , 30 km/h, Gust: 23 mph , 37 km/h
Temperature: 75°F , 24°C
Dew Point: 37°F , 3°C
Humidity: 25%
Barometer: 30.29 inHg , 1025.7 hPa
Clouds: Clear
Visibility: 10 miles , 16 km
2019/08/23 19:56 PHSF 231956Z AUTO 17016G20KT 10SM CLR 24/03 A3029 RMK AO2 SLP127 WND DATA ESTMD T02410031 $
 
PHNG - Kaneohe Mcas, Hawaii, USA
Distance from station: WNW 102mi, 164km
Updated: Fri, 23-Aug-2019 9:57am HST
Mostly Cloudy
Mostly Cloudy
 Wind from ENE
Wind: ENE 10 mph , 17 km/h
Temperature: 84°F , 29°C
Heat Index: 90°F , 32°C
Dew Point: 73°F , 23°C
Humidity: 70%
Barometer: 29.95 inHg , 1014.2 hPa
Clouds: Mostly Cloudy
Visibility: 10 miles , 16 km
Cloud details: Mostly Cloudy 2500 ft
Mostly Cloudy 3200 ft
2019/08/23 19:57 PHNG 231957Z 06009KT 10SM BKN025 BKN032 29/23 A2995 RMK AO2 SLP136 T02940228 $
PHNL - Honolulu, Hawaii, USA
Distance from station: WNW 108mi, 174km
Updated: Fri, 23-Aug-2019 9:53am HST
Partly Cloudy
Partly Cloudy
 Wind from NE
Wind: NE 12 mph , 19 km/h
Temperature: 88°F , 31°C
Heat Index: 93°F , 34°C
Dew Point: 70°F , 21°C
Humidity: 55%
Barometer: 29.96 inHg , 1014.6 hPa
Clouds: Partly Cloudy
Visibility: 10 miles , 16 km
Cloud details: Few Clouds 2500 ft
Partly Cloudy 3500 ft
2019/08/23 19:53 PHNL 231953Z 05010KT 10SM FEW025 SCT035 31/21 A2996 RMK AO2 SLP143 T03110206
 
PHTO - Hilo, Hawaii, USA
Distance from station: SE 114mi, 183km
Updated: Fri, 23-Aug-2019 9:53am HST
Overcast
Overcast
 Wind from ESE
Wind: ESE 12 mph , 19 km/h
Temperature: 84°F , 29°C
Heat Index: 90°F , 32°C
Dew Point: 73°F , 23°C
Humidity: 70%
Barometer: 29.97 inHg , 1014.9 hPa
Clouds: Overcast
Visibility: 10 miles , 16 km
Cloud details: Overcast 4700 ft
2019/08/23 19:53 PHTO 231953Z 12010KT 10SM OVC047 29/23 A2997 RMK AO2 SLP148 T02890228
PHJR - Kalaeloa, Hawaii, USA
Distance from station: WNW 117mi, 189km
Updated: Fri, 23-Aug-2019 9:53am HST
Few Clouds
Few Clouds
 Wind from SE
Wind: SE 8 mph , 13 km/h
Temperature: 88°F , 31°C
Heat Index: 95°F , 35°C
Dew Point: 72°F , 22°C
Humidity: 59%
Barometer: 29.97 inHg , 1014.9 hPa
Clouds: Few Clouds
Visibility: 10 miles , 16 km
Cloud details: Few Clouds 3800 ft
2019/08/23 19:53 PHJR 231953Z 13007KT 10SM FEW038 31/22 A2997 RMK AO2 SLP153 T03110217
 
PHHI - Wheeler Afb/Oahu, Hawaii, USA
Distance from station: WNW 120mi, 193km
Updated: Fri, 23-Aug-2019 9:56am HST
Partly Cloudy
Partly Cloudy
 Wind from ESE
Wind: ESE 8 mph , 13 km/h
Temperature: 84°F , 29°C
Heat Index: 88°F , 31°C
Dew Point: 70°F , 21°C
Humidity: 62%
Barometer: 29.98 inHg , 1015.2 hPa
Clouds: Partly Cloudy
Visibility: 10 miles , 16 km
Cloud details: Partly Cloudy 2900 ft
2019/08/23 19:56 PHHI 231956Z AUTO 12007KT 10SM SCT029 29/21 A2998 RMK AO2 SLP139 T02880208 $
PHLI - Lihue/Kauai Is, Hawaii, USA
Distance from station: WNW 209mi, 336km
Updated: Fri, 23-Aug-2019 9:53am HST
Partly Cloudy
Partly Cloudy
 Wind from ENE
Wind: ENE 8 mph , 13 km/h
Temperature: 88°F , 31°C
Heat Index: 96°F , 36°C
Dew Point: 73°F , 23°C
Humidity: 62%
Barometer: 30.00 inHg , 1015.9 hPa
Clouds: Partly Cloudy
Visibility: 10 miles , 16 km
Cloud details: Few Clouds 1700 ft
Partly Cloudy 3400 ft
2019/08/23 19:53 PHLI 231953Z 06007KT 10SM FEW017 SCT034 31/23 A3000 RMK AO2 SLP154 T03060233
 
PHBK - Barking Sands/Ka, Hawaii, USA
Distance from station: WNW 237mi, 382km
Updated: Fri, 23-Aug-2019 10:14am HST
Partly Cloudy
Partly Cloudy
 Wind from NW
Wind: NW 6 mph , 9 km/h
Temperature: 84°F , 29°C
Heat Index: 89°F , 32°C
Dew Point: 72°F , 22°C
Humidity: 66%
Barometer: 29.97 inHg , 1014.9 hPa
Clouds: Partly Cloudy
Visibility: 10 miles , 16 km
Cloud details: Partly Cloudy 4000 ft
2019/08/23 20:14 PHBK 232014Z AUTO 32005KT 10SM SCT040 29/22 A2997 RMK AO2 T02940222